createdAt,value
2022-12-01T00:00:42.752Z,68.42
2022-12-01T00:01:44.368Z,68.08
2022-12-01T00:02:46.124Z,68.12
2022-12-01T00:03:47.708Z,68.02
2022-12-01T00:04:49.177Z,67.95
2022-12-01T00:06:00.407Z,68.33
2022-12-01T00:07:01.900Z,68.11
2022-12-01T00:08:05.080Z,67.82
2022-12-01T00:09:25.372Z,68.18
2022-12-01T00:10:26.875Z,68.40
2022-12-01T00:11:28.465Z,68.33
2022-12-01T00:12:30.003Z,68.40
2022-12-01T00:13:31.736Z,68.25
2022-12-01T00:14:33.226Z,68.44
2022-12-01T00:15:35.306Z,68.45
2022-12-01T00:16:36.898Z,68.77
2022-12-01T00:17:38.562Z,68.61
2022-12-01T00:18:40.051Z,68.44
2022-12-01T00:19:41.505Z,68.58
2022-12-01T00:20:43.067Z,68.71
2022-12-01T00:21:45.400Z,68.72
2022-12-01T00:22:47.162Z,68.62
2022-12-01T00:23:50.070Z,68.89
2022-12-01T00:24:51.534Z,68.80
2022-12-01T00:25:52.976Z,68.85
2022-12-01T00:26:54.477Z,69.09
2022-12-01T00:27:56.000Z,69.12
2022-12-01T00:28:57.883Z,69.05
2022-12-01T00:29:59.456Z,69.10
2022-12-01T00:31:00.930Z,69.17
2022-12-01T00:32:02.515Z,69.16
2022-12-01T00:33:04.066Z,69.19
2022-12-01T00:34:10.803Z,69.11
2022-12-01T00:35:13.002Z,69.11
2022-12-01T00:36:14.485Z,69.42
2022-12-01T00:37:16.120Z,69.27
2022-12-01T00:38:17.576Z,69.46
2022-12-01T00:39:19.419Z,69.64
2022-12-01T00:40:20.896Z,69.35
2022-12-01T00:41:22.572Z,69.48
2022-12-01T00:42:24.447Z,69.16
2022-12-01T00:43:25.956Z,69.08
2022-12-01T00:44:27.412Z,69.17
2022-12-01T00:45:28.926Z,69.46
2022-12-01T00:46:30.499Z,69.41
2022-12-01T00:47:32.044Z,69.16
2022-12-01T00:48:33.585Z,69.13
2022-12-01T00:49:35.176Z,69.43
2022-12-01T00:50:36.635Z,69.52
2022-12-01T00:51:38.103Z,69.51
2022-12-01T00:52:39.675Z,69.52
2022-12-01T00:53:41.151Z,69.30
2022-12-01T00:54:42.711Z,69.30
2022-12-01T00:55:44.293Z,69.33
2022-12-01T00:56:45.766Z,69.35
2022-12-01T00:57:47.236Z,69.50
2022-12-01T00:58:48.773Z,69.59
2022-12-01T00:59:50.575Z,69.57
2022-12-01T01:00:59.089Z,69.42
2022-12-01T01:02:00.737Z,69.72
2022-12-01T01:03:02.211Z,69.42
2022-12-01T01:04:03.758Z,69.52
2022-12-01T01:05:05.470Z,69.15
2022-12-01T01:06:07.633Z,69.23
2022-12-01T01:07:09.089Z,69.25
2022-12-01T01:08:11.131Z,69.46
2022-12-01T01:09:12.697Z,69.56
2022-12-01T01:10:14.159Z,69.40
2022-12-01T01:11:15.660Z,69.52
2022-12-01T01:12:17.117Z,69.58
2022-12-01T01:13:18.699Z,69.60
2022-12-01T01:14:20.626Z,68.82
2022-12-01T01:15:22.081Z,68.18
2022-12-01T01:16:23.669Z,67.80
2022-12-01T01:17:25.198Z,67.75
2022-12-01T01:18:26.707Z,67.90
2022-12-01T01:19:28.202Z,67.89
2022-12-01T01:20:29.751Z,67.11
2022-12-01T01:21:31.260Z,67.61
2022-12-01T01:22:32.730Z,67.75
2022-12-01T01:23:34.363Z,67.91
2022-12-01T01:24:35.854Z,67.73
2022-12-01T01:25:37.319Z,67.73
2022-12-01T01:26:38.877Z,67.87
2022-12-01T01:27:40.341Z,68.11
2022-12-01T01:28:41.844Z,68.00
2022-12-01T01:29:43.383Z,67.35
2022-12-01T01:30:44.851Z,68.12
2022-12-01T01:31:46.337Z,68.54
2022-12-01T01:32:47.802Z,68.37
2022-12-01T01:33:49.335Z,68.61
2022-12-01T01:34:50.812Z,68.48
2022-12-01T01:35:52.256Z,68.52
2022-12-01T01:36:53.740Z,68.88
2022-12-01T01:37:55.207Z,69.09
2022-12-01T01:38:56.772Z,69.25
2022-12-01T01:39:58.289Z,69.17
2022-12-01T01:40:59.786Z,69.48
2022-12-01T01:42:01.283Z,69.44
2022-12-01T01:43:02.753Z,69.66
2022-12-01T01:44:04.359Z,69.53
2022-12-01T01:45:11.240Z,69.48
2022-12-01T01:46:16.524Z,69.48
2022-12-01T01:47:20.416Z,69.41
2022-12-01T01:48:21.866Z,69.30
2022-12-01T01:49:23.336Z,69.24
2022-12-01T01:50:25.128Z,69.38
2022-12-01T01:51:28.432Z,69.25
2022-12-01T01:52:29.939Z,69.26
2022-12-01T01:53:31.385Z,69.30
2022-12-01T01:54:36.316Z,69.38
2022-12-01T01:55:37.882Z,69.36
2022-12-01T01:56:39.373Z,68.84
2022-12-01T01:57:40.902Z,68.94
2022-12-01T01:58:42.499Z,69.15
2022-12-01T01:59:44.885Z,69.12
2022-12-01T02:00:46.410Z,69.21
2022-12-01T02:01:49.122Z,69.28
2022-12-01T02:02:50.811Z,69.29
2022-12-01T02:03:53.195Z,69.30
2022-12-01T02:04:56.912Z,68.78
2022-12-01T02:06:03.463Z,68.90
2022-12-01T02:11:53.566Z,68.79
2022-12-01T02:13:10.039Z,68.61
2022-12-01T02:14:14.936Z,68.59
2022-12-01T02:15:24.129Z,68.45
2022-12-01T02:16:31.270Z,68.48
2022-12-01T02:17:54.817Z,68.45
2022-12-01T02:19:16.187Z,68.63
2022-12-01T02:20:33.897Z,68.40
2022-12-01T02:21:47.439Z,68.54
2022-12-01T02:22:53.590Z,68.52
2022-12-01T02:23:55.395Z,68.91
2022-12-01T02:25:15.850Z,69.05
2022-12-01T02:26:23.179Z,69.25
2022-12-01T02:27:43.497Z,69.20
2022-12-01T02:29:03.478Z,69.25
2022-12-01T02:30:06.688Z,69.24
2022-12-01T02:31:15.238Z,69.29
2022-12-01T02:32:16.856Z,69.14
2022-12-01T02:33:54.160Z,69.39
2022-12-01T02:34:58.284Z,69.26
2022-12-01T02:36:15.857Z,69.46
2022-12-01T02:37:23.201Z,68.98
2022-12-01T02:38:35.701Z,68.81
2022-12-01T02:39:45.257Z,68.71
2022-12-01T02:40:47.898Z,68.85
2022-12-01T02:41:51.243Z,69.07
2022-12-01T02:43:00.041Z,68.67
2022-12-01T02:44:10.654Z,68.75
2022-12-01T02:45:13.287Z,68.60
2022-12-01T02:46:26.644Z,68.50
2022-12-01T02:47:28.163Z,68.57
2022-12-01T02:48:30.999Z,68.89
2022-12-01T02:49:33.806Z,69.05
2022-12-01T02:50:35.344Z,68.95
2022-12-01T02:51:36.810Z,69.00
2022-12-01T02:52:38.662Z,69.21
2022-12-01T02:53:40.210Z,69.19
2022-12-01T02:54:41.748Z,69.19
2022-12-01T02:55:46.975Z,69.37
2022-12-01T02:56:51.331Z,69.11
2022-12-01T02:57:52.858Z,69.29
2022-12-01T02:58:54.432Z,69.34
2022-12-01T02:59:56.025Z,69.16
2022-12-01T03:01:18.193Z,69.13
2022-12-01T03:02:24.626Z,68.53
2022-12-01T03:03:35.589Z,68.54
2022-12-01T03:04:56.884Z,68.71
2022-12-01T03:06:16.880Z,68.70
2022-12-01T03:07:37.118Z,68.66
2022-12-01T03:08:46.077Z,68.83
2022-12-01T03:10:09.764Z,68.63
2022-12-01T03:11:26.960Z,68.88
2022-12-01T03:12:39.244Z,68.85
2022-12-01T03:13:49.437Z,69.01
2022-12-01T03:14:58.377Z,68.81
2022-12-01T03:16:05.742Z,68.95
2022-12-01T03:17:11.298Z,69.15
2022-12-01T03:18:18.661Z,69.05
2022-12-01T03:19:23.073Z,69.00
2022-12-01T03:20:36.527Z,69.10
2022-12-01T03:21:38.000Z,69.03
2022-12-01T03:22:41.444Z,69.02
2022-12-01T03:23:44.798Z,69.04
2022-12-01T03:24:46.718Z,69.21
2022-12-01T03:25:48.555Z,69.12
2022-12-01T03:26:52.299Z,69.33
2022-12-01T03:28:20.280Z,69.43
2022-12-01T03:29:18.578Z,69.61
2022-12-01T03:30:20.072Z,69.58
2022-12-01T03:31:23.104Z,69.64
2022-12-01T03:32:29.661Z,69.55
2022-12-01T03:33:35.264Z,69.77
2022-12-01T03:34:39.689Z,69.92
2022-12-01T03:35:42.755Z,70.01
2022-12-01T03:36:45.774Z,70.17
2022-12-01T03:37:49.604Z,70.05
2022-12-01T03:38:52.643Z,70.08
2022-12-01T03:40:00.319Z,69.85
2022-12-01T03:41:09.547Z,69.89
2022-12-01T03:42:14.064Z,69.91
2022-12-01T03:43:16.211Z,70.07
2022-12-01T03:44:19.912Z,69.82
2022-12-01T03:45:26.672Z,69.77
2022-12-01T03:46:32.971Z,69.80
2022-12-01T03:47:37.250Z,69.86
2022-12-01T03:48:38.840Z,70.00
2022-12-01T03:49:40.334Z,69.92
2022-12-01T03:51:14.109Z,69.96
2022-12-01T03:52:38.610Z,69.98
2022-12-01T03:53:51.613Z,69.85
2022-12-01T03:54:55.931Z,70.11
2022-12-01T03:55:58.528Z,69.98
2022-12-01T03:57:00.669Z,69.90
2022-12-01T03:58:12.600Z,69.96
2022-12-01T03:59:14.095Z,69.73
2022-12-01T04:00:15.695Z,69.57
2022-12-01T04:01:17.364Z,69.62
2022-12-01T04:02:18.927Z,69.55
2022-12-01T04:03:20.694Z,69.24
2022-12-01T04:04:22.214Z,69.31
2022-12-01T04:05:25.468Z,69.45
2022-12-01T04:06:27.230Z,69.60
2022-12-01T04:07:28.824Z,69.71
2022-12-01T04:08:30.815Z,69.50
2022-12-01T04:09:32.341Z,69.51
2022-12-01T04:10:33.872Z,69.48
2022-12-01T04:11:53.842Z,69.43
2022-12-01T04:12:59.376Z,68.94
2022-12-01T04:14:00.878Z,69.25
2022-12-01T04:15:03.629Z,69.24
2022-12-01T04:16:05.279Z,69.23
2022-12-01T04:17:06.798Z,69.20
2022-12-01T04:18:08.293Z,69.04
2022-12-01T04:19:10.669Z,69.09
2022-12-01T04:20:13.126Z,69.28
2022-12-01T04:21:14.742Z,69.12
2022-12-01T04:22:16.267Z,69.10
2022-12-01T04:23:36.586Z,69.15
2022-12-01T04:24:38.116Z,69.43
2022-12-01T04:25:39.598Z,69.39
2022-12-01T04:26:42.114Z,69.42
2022-12-01T04:27:43.625Z,69.39
2022-12-01T04:28:45.192Z,69.39
2022-12-01T04:29:47.342Z,69.34
2022-12-01T04:30:49.187Z,69.36
2022-12-01T04:31:50.757Z,69.35
2022-12-01T04:32:52.320Z,69.13
2022-12-01T04:33:54.506Z,69.01
2022-12-01T04:34:56.002Z,69.26
2022-12-01T04:35:58.175Z,69.28
2022-12-01T04:36:59.710Z,69.11
2022-12-01T04:38:01.248Z,69.25
2022-12-01T04:39:02.836Z,69.22
2022-12-01T04:40:05.808Z,69.16
2022-12-01T04:41:10.589Z,69.11
2022-12-01T04:42:12.067Z,69.03
2022-12-01T04:43:13.537Z,69.06
2022-12-01T04:44:15.429Z,69.24
2022-12-01T04:45:16.909Z,69.04
2022-12-01T04:46:18.463Z,69.02
2022-12-01T04:47:19.970Z,68.97
2022-12-01T04:48:21.509Z,68.83
2022-12-01T04:49:22.967Z,69.01
2022-12-01T04:50:24.479Z,68.96
2022-12-01T04:51:26.142Z,68.78
2022-12-01T04:52:33.620Z,68.73
2022-12-01T04:53:36.666Z,68.65
2022-12-01T04:54:38.169Z,68.72
2022-12-01T04:55:39.750Z,68.99
2022-12-01T04:56:41.420Z,69.08
2022-12-01T04:57:42.915Z,69.10
2022-12-01T04:58:44.586Z,69.02
2022-12-01T04:59:46.042Z,68.81
2022-12-01T05:00:47.687Z,69.06
2022-12-01T05:01:49.569Z,68.93
2022-12-01T05:02:51.066Z,68.83
2022-12-01T05:03:52.604Z,68.93
2022-12-01T05:04:54.126Z,68.71
2022-12-01T05:06:22.174Z,68.86
2022-12-01T05:07:23.741Z,68.90
2022-12-01T05:08:25.274Z,68.78
2022-12-01T05:09:26.798Z,68.72
2022-12-01T05:10:28.279Z,68.96
2022-12-01T05:11:30.018Z,68.73
2022-12-01T05:12:31.614Z,68.71
2022-12-01T05:13:33.089Z,68.48
2022-12-01T05:14:34.600Z,68.55
2022-12-01T05:15:36.081Z,68.55
2022-12-01T05:16:37.670Z,68.48
2022-12-01T05:17:39.451Z,68.54
2022-12-01T05:18:41.212Z,68.53
2022-12-01T05:20:01.612Z,68.54
2022-12-01T05:21:04.021Z,68.42
2022-12-01T05:22:05.567Z,68.37
2022-12-01T05:23:08.266Z,68.33
2022-12-01T05:24:12.553Z,68.33
2022-12-01T05:25:14.258Z,68.22
2022-12-01T05:26:15.834Z,68.16
2022-12-01T05:27:17.367Z,68.19
2022-12-01T05:28:19.078Z,68.05
2022-12-01T05:29:20.524Z,68.39
2022-12-01T05:30:25.647Z,68.39
2022-12-01T05:31:30.023Z,68.26
2022-12-01T05:32:31.572Z,68.19
2022-12-01T05:33:33.139Z,68.16
2022-12-01T05:34:34.747Z,68.07
2022-12-01T05:35:36.224Z,68.17
2022-12-01T05:36:37.680Z,68.19
2022-12-01T05:37:39.241Z,67.92
2022-12-01T05:38:40.690Z,67.75
2022-12-01T05:39:42.217Z,67.73
2022-12-01T05:40:43.815Z,67.77
2022-12-01T05:41:45.269Z,67.35
2022-12-01T05:42:46.756Z,67.43
2022-12-01T05:43:52.194Z,67.48
2022-12-01T05:44:53.648Z,67.43
2022-12-01T05:45:56.149Z,67.40
2022-12-01T05:46:57.749Z,67.58
2022-12-01T05:47:59.787Z,67.46
2022-12-01T05:49:01.321Z,67.12
2022-12-01T05:50:05.761Z,67.02
2022-12-01T05:51:08.967Z,67.14
2022-12-01T05:52:10.487Z,67.07
2022-12-01T05:53:12.709Z,67.18
2022-12-01T05:54:14.203Z,67.32
2022-12-01T05:55:15.755Z,67.31
2022-12-01T05:56:17.550Z,67.23
2022-12-01T05:57:19.105Z,67.07
2022-12-01T05:58:21.458Z,66.86
2022-12-01T05:59:22.968Z,66.97
2022-12-01T06:00:24.427Z,66.82
2022-12-01T06:01:25.912Z,66.84
2022-12-01T06:02:27.438Z,67.05
2022-12-01T06:03:28.947Z,67.01
2022-12-01T06:04:30.470Z,67.48
2022-12-01T06:05:32.254Z,67.26
2022-12-01T06:06:33.719Z,66.98
2022-12-01T06:07:35.782Z,67.28
2022-12-01T06:08:37.390Z,67.14
2022-12-01T06:09:38.913Z,67.30
2022-12-01T06:10:40.433Z,67.25
2022-12-01T06:11:41.946Z,66.97
2022-12-01T06:12:43.388Z,66.92
2022-12-01T06:13:44.848Z,67.23
2022-12-01T06:14:46.318Z,66.91
2022-12-01T06:15:55.763Z,66.82
2022-12-01T06:16:57.263Z,67.06
2022-12-01T06:17:59.049Z,67.03
2022-12-01T06:19:00.567Z,67.08
2022-12-01T06:20:02.044Z,67.14
2022-12-01T06:21:04.064Z,67.22
2022-12-01T06:22:05.605Z,67.23
2022-12-01T06:23:07.125Z,67.06
2022-12-01T06:24:08.634Z,66.96
2022-12-01T06:25:10.157Z,66.83
2022-12-01T06:26:11.793Z,66.69
2022-12-01T06:27:13.306Z,66.56
2022-12-01T06:28:14.854Z,66.66
2022-12-01T06:29:16.343Z,66.64
2022-12-01T06:30:17.924Z,66.61
2022-12-01T06:31:19.586Z,66.65
2022-12-01T06:32:21.443Z,66.54
2022-12-01T06:33:22.975Z,66.49
2022-12-01T06:34:24.514Z,66.36
2022-12-01T06:35:26.001Z,66.29
2022-12-01T06:36:27.515Z,66.25
2022-12-01T06:37:29.008Z,66.48
2022-12-01T06:38:30.790Z,66.33
2022-12-01T06:39:32.338Z,66.39
2022-12-01T06:40:33.802Z,66.44
2022-12-01T06:41:36.337Z,66.19
2022-12-01T06:42:37.780Z,65.80
2022-12-01T06:43:39.231Z,66.18
2022-12-01T06:44:40.725Z,66.19
2022-12-01T06:45:42.255Z,66.34
2022-12-01T06:46:43.853Z,66.26
2022-12-01T06:47:47.031Z,66.32
2022-12-01T06:48:49.255Z,66.19
2022-12-01T06:49:51.042Z,66.32
2022-12-01T06:50:52.873Z,66.18
2022-12-01T06:51:54.378Z,65.84
2022-12-01T06:52:55.881Z,66.06
2022-12-01T06:54:02.137Z,65.82
2022-12-01T06:55:06.964Z,65.71
2022-12-01T06:56:08.754Z,65.73
2022-12-01T06:57:10.529Z,65.58
2022-12-01T06:58:12.196Z,65.45
2022-12-01T06:59:14.243Z,65.63
2022-12-01T07:00:16.165Z,64.93
2022-12-01T07:01:18.116Z,65.15
2022-12-01T07:02:19.772Z,64.72
2022-12-01T07:03:21.267Z,65.03
2022-12-01T07:04:22.733Z,64.10
2022-12-01T07:05:24.278Z,64.75
2022-12-01T07:06:25.777Z,64.75
2022-12-01T07:07:27.348Z,64.37
2022-12-01T07:08:29.346Z,64.24
2022-12-01T07:09:30.785Z,64.76
2022-12-01T07:10:32.247Z,64.18
2022-12-01T07:11:36.361Z,64.28
2022-12-01T07:12:37.868Z,64.16
2022-12-01T07:13:39.434Z,64.20
2022-12-01T07:14:42.427Z,63.91
2022-12-01T07:15:44.403Z,64.33
2022-12-01T07:16:45.978Z,64.28
2022-12-01T07:17:47.509Z,63.90
2022-12-01T07:18:49.210Z,63.88
2022-12-01T07:19:50.824Z,63.94
2022-12-01T07:20:52.388Z,64.12
2022-12-01T07:21:53.928Z,64.15
2022-12-01T07:22:55.405Z,63.88
2022-12-01T07:23:57.142Z,64.04
2022-12-01T07:24:58.709Z,64.11
2022-12-01T07:26:04.343Z,64.41
2022-12-01T07:27:05.831Z,64.23
2022-12-01T07:28:07.292Z,64.30
2022-12-01T07:29:09.315Z,64.01
2022-12-01T07:30:11.218Z,64.00
2022-12-01T07:31:13.753Z,64.19
2022-12-01T07:32:15.358Z,63.96
2022-12-01T07:33:16.854Z,64.12
2022-12-01T07:34:18.312Z,63.45
2022-12-01T07:35:20.288Z,63.76
2022-12-01T07:36:21.766Z,63.81
2022-12-01T07:37:23.339Z,63.45
2022-12-01T07:38:24.877Z,63.58
2022-12-01T07:39:26.338Z,63.56
2022-12-01T07:40:27.824Z,63.57
2022-12-01T07:41:29.306Z,63.07
2022-12-01T07:42:30.924Z,62.94
2022-12-01T07:43:32.700Z,63.35
2022-12-01T07:44:34.243Z,63.50
2022-12-01T07:45:35.697Z,63.40
2022-12-01T07:46:37.279Z,63.50
2022-12-01T07:47:38.810Z,63.45
2022-12-01T07:48:40.574Z,63.60
2022-12-01T07:49:42.066Z,63.55
2022-12-01T07:50:43.558Z,63.89
2022-12-01T07:51:45.002Z,63.56
2022-12-01T07:52:50.617Z,63.72
2022-12-01T07:53:52.439Z,63.99
2022-12-01T07:54:53.881Z,63.79
2022-12-01T07:55:55.462Z,63.81
2022-12-01T07:56:56.945Z,63.44
2022-12-01T07:58:01.550Z,63.56
2022-12-01T07:59:03.093Z,63.54
2022-12-01T08:00:05.030Z,63.64
2022-12-01T08:01:17.348Z,63.38
2022-12-01T08:02:19.045Z,63.49
2022-12-01T08:03:20.577Z,63.63
2022-12-01T08:04:22.037Z,64.05
2022-12-01T08:05:23.549Z,63.43
2022-12-01T08:06:25.232Z,63.46
2022-12-01T08:07:29.837Z,63.35
2022-12-01T08:08:32.389Z,63.67
2022-12-01T08:09:33.939Z,63.40
2022-12-01T08:10:35.404Z,63.54
2022-12-01T08:11:36.934Z,63.97
2022-12-01T08:12:38.431Z,63.96
2022-12-01T08:13:40.462Z,63.86
2022-12-01T08:14:41.949Z,63.97
2022-12-01T08:15:43.520Z,63.97
2022-12-01T08:16:45.044Z,63.92
2022-12-01T08:17:46.497Z,63.78
2022-12-01T08:18:48.108Z,63.67
2022-12-01T08:19:49.821Z,63.64
2022-12-01T08:20:51.628Z,63.30
2022-12-01T08:21:53.273Z,63.43
2022-12-01T08:22:54.761Z,63.13
2022-12-01T08:23:56.527Z,62.96
2022-12-01T08:24:57.998Z,63.15
2022-12-01T08:26:02.464Z,62.81
2022-12-01T08:27:04.243Z,62.60
2022-12-01T08:28:05.701Z,62.89
2022-12-01T08:29:07.184Z,62.66
2022-12-01T08:30:09.012Z,63.13
2022-12-01T08:31:11.396Z,63.00
2022-12-01T08:32:12.899Z,63.30
2022-12-01T08:33:14.411Z,63.33
2022-12-01T08:34:15.881Z,63.86
2022-12-01T08:35:17.342Z,63.87
2022-12-01T08:36:18.873Z,64.35
2022-12-01T08:37:20.338Z,64.26
2022-12-01T08:38:21.885Z,64.08
2022-12-01T08:39:23.385Z,64.32
2022-12-01T08:40:24.963Z,64.40
2022-12-01T08:41:26.627Z,64.26
2022-12-01T08:42:28.156Z,64.42
2022-12-01T08:43:56.119Z,64.26
2022-12-01T08:44:51.235Z,64.52
2022-12-01T08:45:52.772Z,64.34
2022-12-01T08:46:54.547Z,64.58
2022-12-01T08:47:58.911Z,64.45
2022-12-01T08:49:00.779Z,64.48
2022-12-01T08:50:04.889Z,64.19
2022-12-01T08:51:13.484Z,64.37
2022-12-01T08:52:14.961Z,64.54
2022-12-01T08:53:16.493Z,64.68
2022-12-01T08:54:18.006Z,64.63
2022-12-01T08:55:19.846Z,64.67
2022-12-01T08:56:22.493Z,65.05
2022-12-01T08:57:23.992Z,64.98
2022-12-01T08:58:25.549Z,64.78
2022-12-01T08:59:27.043Z,64.74
2022-12-01T09:00:29.359Z,65.30
2022-12-01T09:01:30.947Z,65.10
2022-12-01T09:02:32.533Z,65.18
2022-12-01T09:03:34.349Z,65.12
2022-12-01T09:04:35.848Z,65.30
2022-12-01T09:05:37.285Z,65.16
2022-12-01T09:06:41.937Z,65.10
2022-12-01T09:07:45.545Z,65.03
2022-12-01T09:08:47.073Z,64.89
2022-12-01T09:09:48.976Z,65.15
2022-12-01T09:10:52.122Z,64.74
2022-12-01T09:11:53.881Z,65.05
2022-12-01T09:12:55.502Z,64.94
2022-12-01T09:13:57.026Z,64.48
2022-12-01T09:14:58.606Z,64.98
2022-12-01T09:16:01.048Z,65.19
2022-12-01T09:17:02.649Z,65.25
2022-12-01T09:18:04.204Z,64.69
2022-12-01T09:19:05.677Z,64.79
2022-12-01T09:20:07.831Z,64.67
2022-12-01T09:21:11.473Z,64.37
2022-12-01T09:22:13.015Z,64.49
2022-12-01T09:23:14.484Z,64.28
2022-12-01T09:24:16.103Z,64.20
2022-12-01T09:25:17.580Z,64.78
2022-12-01T09:26:19.611Z,67.84
2022-12-01T09:27:21.110Z,67.76
2022-12-01T09:28:22.689Z,67.52
2022-12-01T09:29:24.290Z,65.53
2022-12-01T09:30:25.868Z,64.96
2022-12-01T09:31:28.034Z,64.58
2022-12-01T09:32:29.558Z,64.18
2022-12-01T09:33:31.163Z,64.09
2022-12-01T09:34:32.726Z,64.20
2022-12-01T09:35:34.202Z,63.79
2022-12-01T09:36:36.005Z,63.57
2022-12-01T09:37:37.580Z,63.66
2022-12-01T09:38:39.085Z,63.46
2022-12-01T09:39:40.550Z,63.75
2022-12-01T09:40:42.732Z,63.75
2022-12-01T09:41:45.578Z,63.93
2022-12-01T09:42:47.487Z,63.64
2022-12-01T09:43:52.948Z,63.49
2022-12-01T09:44:55.120Z,63.95
2022-12-01T09:45:58.553Z,63.72
2022-12-01T09:47:19.614Z,63.45
2022-12-01T09:48:29.105Z,63.61
2022-12-01T09:49:49.831Z,63.58
2022-12-01T09:50:51.682Z,65.19
2022-12-01T09:51:53.247Z,65.43
2022-12-01T09:52:57.224Z,64.83
2022-12-01T09:53:59.051Z,63.80
2022-12-01T09:55:00.606Z,63.33
2022-12-01T09:56:08.553Z,62.91
2022-12-01T09:57:32.028Z,63.07
2022-12-01T09:58:33.626Z,63.69
2022-12-01T09:59:35.948Z,62.57
2022-12-01T10:00:38.248Z,63.90
2022-12-01T10:01:42.177Z,63.34
2022-12-01T10:02:54.156Z,62.68
2022-12-01T10:03:56.086Z,62.39
2022-12-01T10:04:58.100Z,62.02
2022-12-01T10:06:26.837Z,61.39
2022-12-01T10:07:29.885Z,61.85
2022-12-01T10:08:32.022Z,61.49
2022-12-01T10:09:38.286Z,61.93
2022-12-01T10:10:40.607Z,62.95
2022-12-01T10:11:42.454Z,63.08
2022-12-01T10:12:44.176Z,62.28
2022-12-01T10:13:45.658Z,61.81
2022-12-01T10:14:47.485Z,61.22
2022-12-01T10:15:56.649Z,61.20
2022-12-01T10:16:58.192Z,61.17
2022-12-01T10:18:02.767Z,61.41
2022-12-01T10:19:16.287Z,60.99
2022-12-01T10:20:23.660Z,61.58
2022-12-01T10:21:44.360Z,61.56
2022-12-01T10:22:49.964Z,61.20
2022-12-01T10:23:58.252Z,61.68
2022-12-01T10:25:16.999Z,61.61
2022-12-01T10:26:36.703Z,61.36
2022-12-01T10:27:57.089Z,60.88
2022-12-01T10:29:07.818Z,61.27
2022-12-01T10:30:10.293Z,61.44
2022-12-01T10:31:21.783Z,61.21
2022-12-01T10:32:29.647Z,61.41
2022-12-01T10:33:35.260Z,61.20
2022-12-01T10:34:38.952Z,61.38
2022-12-01T10:35:41.725Z,61.26
2022-12-01T10:36:43.303Z,61.93
2022-12-01T10:37:44.970Z,61.68
2022-12-01T10:38:46.514Z,61.92
2022-12-01T10:39:49.237Z,62.05
2022-12-01T10:40:51.630Z,61.82
2022-12-01T10:41:53.138Z,62.20
2022-12-01T10:42:54.745Z,61.84
2022-12-01T10:43:59.421Z,62.05
2022-12-01T10:45:01.483Z,61.92
2022-12-01T10:46:05.743Z,62.57
2022-12-01T10:47:18.460Z,62.42
2022-12-01T10:48:20.694Z,62.44
2022-12-01T10:49:34.037Z,62.00
2022-12-01T10:50:35.884Z,62.08
2022-12-01T10:51:51.258Z,61.91
2022-12-01T10:52:52.736Z,61.91
2022-12-01T10:54:06.418Z,61.85
2022-12-01T10:55:22.926Z,61.42
2022-12-01T10:56:24.483Z,61.64
2022-12-01T10:57:26.540Z,61.51
2022-12-01T10:58:28.018Z,61.15
2022-12-01T10:59:45.802Z,61.29
2022-12-01T11:01:02.245Z,61.34
2022-12-01T11:02:04.608Z,61.41
2022-12-01T11:03:06.439Z,61.44
2022-12-01T11:04:08.987Z,61.12
2022-12-01T11:05:39.977Z,61.21
2022-12-01T11:06:41.479Z,61.40
2022-12-01T11:07:43.499Z,61.63
2022-12-01T11:08:52.640Z,61.50
2022-12-01T11:10:00.049Z,61.50
2022-12-01T11:11:01.524Z,61.28
2022-12-01T11:12:03.579Z,61.67
2022-12-01T11:13:07.392Z,62.00
2022-12-01T11:14:18.583Z,61.39
2022-12-01T11:15:21.163Z,61.02
2022-12-01T11:16:41.260Z,61.32
2022-12-01T11:17:42.931Z,61.46
2022-12-01T11:18:44.629Z,61.54
2022-12-01T11:19:46.281Z,61.59
2022-12-01T11:20:48.536Z,61.42
2022-12-01T11:21:50.930Z,61.60
2022-12-01T11:22:52.365Z,61.46
2022-12-01T11:23:54.658Z,61.30
2022-12-01T11:24:57.279Z,60.46
2022-12-01T11:26:00.209Z,60.67
2022-12-01T11:27:01.846Z,60.67
2022-12-01T11:28:03.593Z,60.51
2022-12-01T11:29:06.832Z,60.46
2022-12-01T11:30:15.822Z,60.56
2022-12-01T11:31:17.359Z,60.77
2022-12-01T11:32:20.776Z,60.80
2022-12-01T11:33:22.279Z,60.90
2022-12-01T11:34:24.996Z,60.77
2022-12-01T11:35:28.000Z,60.44
2022-12-01T11:36:39.751Z,60.65
2022-12-01T11:38:13.087Z,61.16
2022-12-01T11:39:28.314Z,60.98
2022-12-01T11:40:30.835Z,61.37
2022-12-01T11:41:33.689Z,61.07
2022-12-01T11:42:36.992Z,61.22
2022-12-01T11:43:38.473Z,61.32
2022-12-01T11:44:55.552Z,61.14
2022-12-01T11:45:57.386Z,61.28
2022-12-01T11:47:22.537Z,61.05
2022-12-01T11:48:28.064Z,60.85
2022-12-01T11:49:29.578Z,61.24
2022-12-01T11:50:32.456Z,61.16
2022-12-01T11:51:37.623Z,60.96
2022-12-01T11:52:45.831Z,60.82
2022-12-01T11:53:47.293Z,60.85
2022-12-01T11:55:05.756Z,60.92
2022-12-01T11:56:11.367Z,61.04
2022-12-01T11:58:12.612Z,60.65
2022-12-01T11:58:35.067Z,60.69
2022-12-01T11:59:36.507Z,61.08
2022-12-01T12:00:46.067Z,61.83
2022-12-01T12:01:47.509Z,62.28
2022-12-01T12:02:49.123Z,62.57
2022-12-01T12:04:10.970Z,62.14
2022-12-01T12:05:26.997Z,61.29
2022-12-01T12:06:39.860Z,61.29
2022-12-01T12:07:45.128Z,61.31
2022-12-01T12:08:49.786Z,60.61
2022-12-01T12:10:00.045Z,60.54
2022-12-01T12:11:07.782Z,60.25
2022-12-01T12:12:41.376Z,59.45
2022-12-01T12:13:52.839Z,59.77
2022-12-01T12:14:58.413Z,59.77
2022-12-01T12:16:06.609Z,60.21
2022-12-01T12:17:08.051Z,60.32
2022-12-01T12:18:28.546Z,60.34
2022-12-01T12:19:34.265Z,60.75
2022-12-01T12:20:46.861Z,60.91
2022-12-01T12:21:51.426Z,60.53
2022-12-01T12:23:00.451Z,60.78
2022-12-01T12:24:06.257Z,60.69
2022-12-01T12:25:17.437Z,60.61
2022-12-01T12:26:33.878Z,60.46
2022-12-01T12:27:53.332Z,60.49
2022-12-01T12:29:10.801Z,60.73
2022-12-01T12:30:15.222Z,60.68
2022-12-01T12:31:35.700Z,60.58
2022-12-01T12:32:37.171Z,60.58
2022-12-01T12:33:44.670Z,60.72
2022-12-01T12:34:46.100Z,60.57
2022-12-01T12:35:52.122Z,60.52
2022-12-01T12:36:56.750Z,60.55
2022-12-01T12:38:16.438Z,60.20
2022-12-01T12:39:40.751Z,59.78
2022-12-01T12:40:51.596Z,59.56
2022-12-01T12:41:54.064Z,59.82
2022-12-01T12:43:14.144Z,59.72
2022-12-01T12:44:15.676Z,60.18
2022-12-01T12:45:21.748Z,60.19
2022-12-01T12:46:23.224Z,60.22
2022-12-01T12:47:24.729Z,60.27
2022-12-01T12:48:26.160Z,60.38
2022-12-01T12:49:27.618Z,60.25
2022-12-01T12:50:47.585Z,59.89
2022-12-01T12:51:49.079Z,59.97
2022-12-01T12:52:52.006Z,59.76
2022-12-01T12:53:55.212Z,60.17
2022-12-01T12:55:00.610Z,60.46
2022-12-01T12:56:04.061Z,60.47
2022-12-01T12:57:06.418Z,60.53
2022-12-01T12:58:13.006Z,60.59
2022-12-01T12:59:16.383Z,60.52
2022-12-01T13:00:18.963Z,60.70
2022-12-01T13:01:25.215Z,60.85
2022-12-01T13:02:29.350Z,60.48
2022-12-01T13:03:40.216Z,60.87
2022-12-01T13:04:43.821Z,60.29
2022-12-01T13:05:47.575Z,60.00
2022-12-01T13:06:50.595Z,60.10
2022-12-01T13:07:57.939Z,60.14
2022-12-01T13:09:01.654Z,60.37
2022-12-01T13:10:07.123Z,60.33
2022-12-01T13:11:20.613Z,60.26
2022-12-01T13:12:27.217Z,60.62
2022-12-01T13:13:31.737Z,60.28
2022-12-01T13:14:34.887Z,60.15
2022-12-01T13:15:36.572Z,60.12
2022-12-01T13:16:40.069Z,60.16
2022-12-01T13:17:42.430Z,60.17
2022-12-01T13:18:43.974Z,60.38
2022-12-01T13:19:45.583Z,60.36
2022-12-01T13:20:47.138Z,60.48
2022-12-01T13:21:49.277Z,60.55
2022-12-01T13:22:51.168Z,60.23
2022-12-01T13:23:52.668Z,60.31
2022-12-01T13:24:54.183Z,59.97
2022-12-01T13:25:56.225Z,60.16
2022-12-01T13:26:59.606Z,60.44
2022-12-01T13:28:01.141Z,60.52
2022-12-01T13:29:03.445Z,60.68
2022-12-01T13:30:05.261Z,60.59
2022-12-01T13:31:06.825Z,60.91
2022-12-01T13:32:10.307Z,61.22
2022-12-01T13:33:13.790Z,61.43
2022-12-01T13:34:33.975Z,61.35
2022-12-01T13:35:38.237Z,61.33
2022-12-01T13:36:46.805Z,61.28
2022-12-01T13:37:48.805Z,61.26
2022-12-01T13:38:56.481Z,61.39
2022-12-01T13:40:06.861Z,61.66
2022-12-01T13:41:11.142Z,61.70
2022-12-01T13:42:18.939Z,61.61
2022-12-01T13:43:20.947Z,61.56
2022-12-01T13:44:26.246Z,61.38
2022-12-01T13:45:34.129Z,60.97
2022-12-01T13:46:41.729Z,61.15
2022-12-01T13:47:46.340Z,61.59
2022-12-01T13:48:47.928Z,61.54
2022-12-01T13:49:50.235Z,61.63
2022-12-01T13:50:55.702Z,61.58
2022-12-01T13:52:15.939Z,61.60
2022-12-01T13:53:17.429Z,61.38